Time;durP1;ratioP1;P1;durP2;ratioP2;P2;SDS_P1;SDS_P2;PMS_P1;PMS_P2;Temp;Humidity;BMP_temperature;BMP_pressure;BME280_temperature;BME280_humidity;BME280_pressure;Samples;Min_cycle;Max_cycle;Signal;HPM_P1;HPM_P2
2024/01/02 00:01:09;;;;;;;9.02;2.05;;;;;;;8.68;100.00;99935.66;5282262;28;20497;-83
2024/01/02 00:03:41;;;;;;;8.10;1.98;;;;;;;8.71;100.00;99922.31;5282673;28;20393;-82
2024/01/02 00:06:14;;;;;;;7.20;1.92;;;;;;;8.67;100.00;99920.94;5281530;28;20055;-83
2024/01/02 00:08:47;;;;;;;8.88;1.63;;;;;;;8.69;100.00;99905.97;5281458;28;20043;-83
2024/01/02 00:11:19;;;;;;;11.63;2.03;;;;;;;8.78;100.00;99912.94;5284965;28;20036;-83
2024/01/02 00:13:51;;;;;;;9.45;2.20;;;;;;;8.75;100.00;99906.25;5282420;28;20044;-82
2024/01/02 00:16:23;;;;;;;9.13;2.80;;;;;;;8.79;100.00;99901.56;5283321;28;20127;-82
2024/01/02 00:18:55;;;;;;;7.28;2.17;;;;;;;8.76;100.00;99881.78;5279890;28;20038;-82
2024/01/02 00:21:27;;;;;;;6.68;2.15;;;;;;;8.83;100.00;99878.59;5280396;28;20429;-82
2024/01/02 00:23:59;;;;;;;9.55;1.90;;;;;;;8.80;100.00;99855.38;5279204;28;20969;-82
2024/01/02 00:26:30;;;;;;;7.25;1.95;;;;;;;8.75;100.00;99851.41;5281115;28;20043;-82
2024/01/02 00:29:02;;;;;;;7.55;2.03;;;;;;;8.76;100.00;99831.34;5280459;28;20034;-82
2024/01/02 00:31:34;;;;;;;5.07;1.50;;;;;;;8.80;100.00;99824.03;5283524;28;20046;-82
2024/01/02 00:34:06;;;;;;;7.88;1.67;;;;;;;8.81;100.00;99802.97;5280451;28;20406;-82
2024/01/02 00:36:38;;;;;;;7.47;1.40;;;;;;;8.77;100.00;99791.19;5282154;28;20024;-82
2024/01/02 00:39:10;;;;;;;9.90;2.13;;;;;;;8.81;100.00;99782.09;5280828;28;20032;-82
2024/01/02 00:41:42;;;;;;;8.52;1.40;;;;;;;8.81;100.00;99761.19;5278758;28;20490;-83
2024/01/02 00:44:14;;;;;;;5.38;2.03;;;;;;;8.77;100.00;99752.84;5280095;28;20038;-82
2024/01/02 00:46:46;;;;;;;5.90;1.40;;;;;;;8.75;100.00;99739.13;5273422;28;20044;-83
2024/01/02 00:49:18;;;;;;;5.47;1.40;;;;;;;8.76;100.00;99729.47;5280777;28;20030;-81
2024/01/02 00:51:50;;;;;;;5.88;1.58;;;;;;;8.85;100.00;99715.53;5282473;28;20029;-82
2024/01/02 00:54:21;;;;;;;5.53;1.33;;;;;;;8.89;100.00;99703.81;5280601;28;20814;-82
2024/01/02 00:56:53;;;;;;;2.97;1.02;;;;;;;8.83;100.00;99707.03;5279255;28;20082;-83
2024/01/02 00:59:26;;;;;;;5.32;1.40;;;;;;;8.85;100.00;99692.03;5281476;28;20036;-82
2024/01/02 01:01:57;;;;;;;4.33;1.30;;;;;;;8.88;100.00;99672.66;5281585;28;20051;-82
2024/01/02 01:04:29;;;;;;;4.88;1.45;;;;;;;8.90;100.00;99668.94;5278789;28;20036;-81
2024/01/02 01:07:01;;;;;;;6.07;1.65;;;;;;;8.89;100.00;99664.66;5278808;28;20293;-83
2024/01/02 01:09:33;;;;;;;5.68;1.13;;;;;;;8.95;100.00;99652.81;5280384;28;20094;-82
2024/01/02 01:12:06;;;;;;;5.72;1.05;;;;;;;8.97;100.00;99632.56;5276722;28;20043;-81
2024/01/02 01:14:38;;;;;;;3.20;1.17;;;;;;;8.95;100.00;99647.56;5280465;28;20036;-82
2024/01/02 01:17:10;;;;;;;3.30;1.10;;;;;;;8.92;100.00;99632.19;5268297;28;20510;-81
2024/01/02 01:19:41;;;;;;;3.78;1.27;;;;;;;8.92;100.00;99634.81;5282110;28;20392;-81
2024/01/02 01:22:13;;;;;;;3.95;1.13;;;;;;;8.99;100.00;99615.78;5280504;28;20024;-81
2024/01/02 01:24:45;;;;;;;2.88;0.80;;;;;;;8.91;100.00;99610.50;5282104;28;20032;-81
2024/01/02 01:27:17;;;;;;;3.05;0.80;;;;;;;8.95;100.00;99593.53;5283471;28;20024;-81
2024/01/02 01:29:49;;;;;;;2.65;0.70;;;;;;;8.95;100.00;99584.88;5278765;28;20397;-81
2024/01/02 01:32:21;;;;;;;2.92;0.80;;;;;;;9.00;100.00;99567.78;5278333;28;20028;-81
2024/01/02 01:34:53;;;;;;;3.03;0.88;;;;;;;8.97;100.00;99552.41;5280777;28;20028;-81
2024/01/02 01:37:25;;;;;;;3.97;0.70;;;;;;;9.05;100.00;99548.22;5275585;28;20032;-81
2024/01/02 01:39:56;;;;;;;2.35;0.82;;;;;;;8.91;100.00;99537.34;5271412;28;20040;-81
2024/01/02 01:42:28;;;;;;;2.28;0.75;;;;;;;9.02;100.00;99542.34;5277187;28;20039;-81
2024/01/02 01:45:00;;;;;;;2.40;0.70;;;;;;;9.02;100.00;99525.84;5282021;28;21318;-81
2024/01/02 01:47:32;;;;;;;2.75;0.70;;;;;;;9.07;100.00;99518.34;5280426;28;20036;-81
2024/01/02 01:50:05;;;;;;;2.10;0.60;;;;;;;9.05;100.00;99493.34;5280504;28;20038;-81
2024/01/02 01:52:37;;;;;;;2.85;0.70;;;;;;;9.09;100.00;99494.69;5280511;28;20508;-82
2024/01/02 01:55:11;;;;;;;2.47;0.50;;;;;;;9.09;100.00;99481.63;5279473;28;20029;-81
2024/01/02 01:57:43;;;;;;;2.75;0.50;;;;;;;9.12;100.00;99476.91;5277700;28;20223;-81
2024/01/02 02:00:15;;;;;;;3.00;0.52;;;;;;;9.11;100.00;99474.47;5279981;28;20386;-81
2024/01/02 02:02:48;;;;;;;1.95;0.68;;;;;;;9.07;100.00;99467.91;5281398;28;20025;-81
2024/01/02 02:05:24;;;;;;;1.70;0.60;;;;;;;9.18;100.00;99449.34;5278719;28;20032;-81
2024/01/02 02:07:56;;;;;;;1.75;0.60;;;;;;;9.12;100.00;99448.16;5279167;28;20028;-82
2024/01/02 02:10:31;;;;;;;2.00;0.75;;;;;;;9.05;100.00;99439.31;5293260;28;20042;-84
2024/01/02 02:13:03;;;;;;;1.27;0.47;;;;;;;9.06;100.00;99435.75;5291621;28;20404;-82
2024/01/02 02:15:38;;;;;;;2.63;0.52;;;;;;;9.08;100.00;99418.09;5292098;28;20058;-82
2024/01/02 02:18:10;;;;;;;2.15;0.50;;;;;;;9.06;100.00;99412.22;5280602;28;20204;-84
2024/01/02 02:20:42;;;;;;;1.33;0.45;;;;;;;9.10;100.00;99399.69;5280373;28;20104;-82
2024/01/02 02:23:15;;;;;;;2.55;0.40;;;;;;;9.15;100.00;99393.00;5291405;28;20236;-82
2024/01/02 02:25:47;;;;;;;;;;;;;;;9.60;100.00;99376.16;5294415;28;20036;-84
2024/01/02 02:28:19;;;;;;;1.65;0.40;;;;;;;9.18;100.00;99374.41;5296880;28;19915;-84
2024/01/02 02:30:51;;;;;;;1.35;0.30;;;;;;;9.19;100.00;99362.97;5299514;28;20032;-82
2024/01/02 02:33:23;;;;;;;1.27;0.40;;;;;;;9.11;100.00;99367.34;5292923;28;20041;-82
2024/01/02 02:35:55;;;;;;;0.90;0.38;;;;;;;9.14;100.00;99354.78;5273970;28;20077;-82
2024/01/02 02:38:27;;;;;;;1.17;0.35;;;;;;;9.16;100.00;99331.91;5294718;28;20041;-85
2024/01/02 02:40:59;;;;;;;0.88;0.40;;;;;;;9.16;100.00;99318.84;5296942;28;20122;-83
2024/01/02 02:43:31;;;;;;;1.40;0.50;;;;;;;9.17;100.00;99320.50;5297207;28;20035;-82
2024/01/02 02:46:03;;;;;;;1.65;0.30;;;;;;;9.15;100.00;99324.25;5287697;28;20418;-83
2024/01/02 02:48:35;;;;;;;1.70;0.40;;;;;;;9.17;100.00;99299.59;5282401;28;20075;-84
2024/01/02 02:51:07;;;;;;;0.55;0.32;;;;;;;9.24;100.00;99302.38;5283633;28;20126;-82
2024/01/02 02:53:38;;;;;;;1.55;0.50;;;;;;;9.16;100.00;99295.34;5296921;28;20119;-82
2024/01/02 02:56:15;;;;;;;0.60;0.22;;;;;;;9.29;100.00;99294.91;5298382;28;20028;-85
2024/01/02 02:58:47;;;;;;;0.47;0.28;;;;;;;9.20;100.00;99275.75;5283105;28;20044;-83
2024/01/02 03:01:23;;;;;;;0.75;0.20;;;;;;;9.29;100.00;99258.31;5297105;28;20032;-84
2024/01/02 03:03:56;;;;;;;0.80;0.40;;;;;;;9.21;100.00;99247.84;5299875;28;20047;-83
2024/01/02 03:06:28;;;;;;;0.82;0.28;;;;;;;9.31;100.00;99247.69;5299122;28;20028;-84
2024/01/02 03:09:00;;;;;;;1.03;0.33;;;;;;;9.30;100.00;99225.16;5296201;28;20369;-82
2024/01/02 03:11:32;;;;;;;1.58;0.30;;;;;;;9.35;100.00;99210.59;5299747;28;20269;-84
2024/01/02 03:14:04;;;;;;;0.50;0.20;;;;;;;9.35;100.00;99209.78;5299062;28;20175;-82
2024/01/02 03:16:36;;;;;;;0.70;0.30;;;;;;;9.17;100.00;99170.75;5297980;28;20036;-82
2024/01/02 03:19:08;;;;;;;1.13;0.38;;;;;;;9.22;100.00;99174.50;5295215;28;20042;-85
2024/01/02 03:21:40;;;;;;;1.00;0.40;;;;;;;9.35;100.00;99173.22;5294574;28;20040;-82
2024/01/02 03:24:12;;;;;;;0.57;0.23;;;;;;;9.39;100.00;99180.56;5278200;28;20061;-82
2024/01/02 03:26:44;;;;;;;0.40;0.25;;;;;;;9.30;100.00;99154.59;5293811;28;20029;-83
2024/01/02 03:29:16;;;;;;;1.02;0.30;;;;;;;9.34;100.00;99154.09;5292729;28;20106;-83
2024/01/02 03:31:48;;;;;;;0.80;0.30;;;;;;;9.32;100.00;99143.00;5294837;28;20036;-83
2024/01/02 03:34:20;;;;;;;0.90;0.38;;;;;;;9.45;100.00;99159.00;5281120;28;20047;-84
2024/01/02 03:36:52;;;;;;;0.98;0.30;;;;;;;9.31;100.00;99125.66;5285064;28;20040;-85
2024/01/02 03:39:24;;;;;;;1.25;0.30;;;;;;;9.45;100.00;99139.88;5295554;28;20103;-83
2024/01/02 03:41:56;;;;;;;0.52;0.30;;;;;;;9.45;100.00;99135.47;5279948;28;20355;-84
2024/01/02 03:44:27;;;;;;;1.00;0.30;;;;;;;9.45;100.00;99132.84;5285835;28;20056;-85
2024/01/02 03:47:00;;;;;;;0.20;0.20;;;;;;;9.45;100.00;99125.00;5297829;28;20095;-83
2024/01/02 03:49:31;;;;;;;0.57;0.30;;;;;;;9.50;100.00;99127.94;5284274;28;20050;-84
2024/01/02 03:52:04;;;;;;;0.22;0.20;;;;;;;9.53;100.00;99128.59;5292979;28;20047;-83
2024/01/02 03:54:36;;;;;;;0.55;0.20;;;;;;;9.52;100.00;99116.53;5293810;28;20028;-83
2024/01/02 03:57:08;;;;;;;0.22;0.20;;;;;;;9.50;100.00;99114.06;5280166;28;20032;-84
2024/01/02 03:59:39;;;;;;;0.75;0.30;;;;;;;9.54;100.00;99104.91;5294090;28;20041;-83
2024/01/02 04:02:11;;;;;;;0.60;0.30;;;;;;;9.58;100.00;99100.16;5295787;28;20096;-83
2024/01/02 04:04:43;;;;;;;0.77;0.30;;;;;;;9.67;100.00;99109.63;5280125;28;20050;-84
2024/01/02 04:07:15;;;;;;;1.15;0.32;;;;;;;9.68;100.00;99085.13;5292668;28;20025;-83
2024/01/02 04:09:47;;;;;;;1.35;0.30;;;;;;;9.73;100.00;99088.03;5295222;28;20441;-85
2024/01/02 04:12:20;;;;;;;0.30;0.20;;;;;;;9.79;100.00;99092.59;5284696;28;20043;-83
2024/01/02 04:14:52;;;;;;;0.60;0.30;;;;;;;9.81;100.00;99097.66;5294773;28;20028;-84
2024/01/02 04:17:23;;;;;;;0.80;0.40;;;;;;;9.86;100.00;99084.91;5290722;28;20040;-83
2024/01/02 04:19:55;;;;;;;0.85;0.40;;;;;;;9.90;100.00;99080.97;5293853;28;20127;-84
2024/01/02 04:22:27;;;;;;;0.30;0.30;;;;;;;9.92;100.00;99071.13;5294775;28;20143;-84
2024/01/02 04:24:59;;;;;;;0.68;0.30;;;;;;;9.98;100.00;99081.75;5293244;28;20108;-84
2024/01/02 04:27:31;;;;;;;0.70;0.43;;;;;;;10.01;100.00;99072.75;5291067;28;20050;-84
2024/01/02 04:30:04;;;;;;;0.68;0.35;;;;;;;10.06;100.00;99067.81;5291982;28;20046;-84
2024/01/02 04:32:36;;;;;;;0.50;0.32;;;;;;;10.07;100.00;99079.09;5284674;28;20044;-85
2024/01/02 04:35:08;;;;;;;0.40;0.20;;;;;;;10.09;100.00;99072.72;5295871;28;20271;-85
2024/01/02 04:37:40;;;;;;;0.22;0.20;;;;;;;10.13;100.00;99060.09;5280025;28;20063;-85
2024/01/02 04:40:12;;;;;;;0.50;0.30;;;;;;;10.19;100.00;99070.72;5295737;28;20038;-83
2024/01/02 04:42:44;;;;;;;0.38;0.25;;;;;;;10.23;100.00;99069.38;5294034;28;20035;-85
2024/01/02 04:45:15;;;;;;;0.32;0.20;;;;;;;10.30;100.00;99074.75;5295027;28;20115;-86
2024/01/02 04:47:47;;;;;;;0.43;0.30;;;;;;;10.33;100.00;99065.75;5291664;28;20028;-83
2024/01/02 04:50:19;;;;;;;0.65;0.30;;;;;;;10.26;100.00;99041.25;5290836;28;20036;-83
2024/01/02 04:52:51;;;;;;;0.40;0.30;;;;;;;10.31;100.00;99063.31;5277683;28;20045;-85
2024/01/02 04:55:23;;;;;;;0.30;0.20;;;;;;;10.40;100.00;99059.66;5284130;28;20055;-85
2024/01/02 04:57:55;;;;;;;0.63;0.25;;;;;;;10.40;100.00;99045.75;5290830;28;20043;-83
2024/01/02 05:00:27;;;;;;;0.75;0.30;;;;;;;10.47;100.00;99052.75;5290687;28;20032;-84
2024/01/02 05:02:59;;;;;;;0.30;0.20;;;;;;;10.59;100.00;99078.53;5294031;28;20052;-83
2024/01/02 05:05:31;;;;;;;0.40;0.30;;;;;;;10.60;100.00;99062.63;5292871;28;20020;-83
2024/01/02 05:08:03;;;;;;;0.50;0.35;;;;;;;10.67;100.00;99075.84;5293182;28;20035;-83
2024/01/02 05:10:36;;;;;;;0.55;0.30;;;;;;;10.69;100.00;99071.28;5281980;28;20043;-85
2024/01/02 05:13:08;;;;;;;;;;;;;;;11.22;100.00;99079.22;5293321;28;20032;-83
2024/01/02 05:15:40;;;;;;;0.32;0.30;;;;;;;10.80;100.00;99060.38;5291610;28;19927;-84
2024/01/02 05:18:12;;;;;;;0.40;0.20;;;;;;;10.93;100.00;99078.13;5290585;28;20024;-85
2024/01/02 05:20:47;;;;;;;0.30;0.30;;;;;;;11.02;100.00;99086.72;5289983;28;21083;-85
2024/01/02 05:23:19;;;;;;;1.00;0.40;;;;;;;10.95;100.00;99070.91;5283824;28;20044;-85
2024/01/02 05:25:51;;;;;;;0.50;0.30;;;;;;;10.98;100.00;99081.03;5290784;28;20390;-85
2024/01/02 05:28:22;;;;;;;0.50;0.30;;;;;;;11.06;100.00;99075.75;5293320;28;20070;-85
2024/01/02 05:30:54;;;;;;;0.82;0.38;;;;;;;11.17;100.00;99071.84;5289851;28;20032;-84
2024/01/02 05:33:26;;;;;;;0.60;0.40;;;;;;;11.18;100.00;99070.88;5291848;28;20039;-83
2024/01/02 05:35:58;;;;;;;0.40;0.30;;;;;;;11.31;100.00;99071.09;5289695;28;20028;-84
2024/01/02 05:38:30;;;;;;;0.55;0.30;;;;;;;11.38;100.00;99079.06;5289877;28;20043;-84
2024/01/02 05:41:02;;;;;;;0.28;0.25;;;;;;;11.36;100.00;99068.72;5283276;28;20048;-84
2024/01/02 05:43:34;;;;;;;1.30;0.30;;;;;;;11.44;100.00;99068.69;5279253;28;20044;-84
2024/01/02 05:46:06;;;;;;;0.52;0.20;;;;;;;11.45;100.00;99075.53;5292725;28;20040;-85
2024/01/02 05:48:38;;;;;;;0.60;0.40;;;;;;;11.50;100.00;99077.63;5288469;28;20504;-85
2024/01/02 05:51:11;;;;;;;0.65;0.30;;;;;;;11.53;100.00;99082.50;5278929;28;20058;-84
2024/01/02 05:53:42;;;;;;;0.40;0.30;;;;;;;11.63;100.00;99090.94;5291560;28;20036;-84
2024/01/02 05:56:16;;;;;;;0.50;0.30;;;;;;;11.65;100.00;99098.63;5287452;28;20042;-83
2024/01/02 05:58:47;;;;;;;;;;;;;;;12.16;100.00;99093.50;5285093;28;20039;-84
2024/01/02 06:01:19;;;;;;;0.80;0.30;;;;;;;11.76;100.00;99100.78;5278355;28;19919;-84
2024/01/02 06:03:51;;;;;;;0.43;0.30;;;;;;;11.68;100.00;99103.50;5272096;28;20486;-82
2024/01/02 06:06:23;;;;;;;0.30;0.30;;;;;;;11.63;100.00;99111.09;5279258;28;20051;-84
2024/01/02 06:08:55;;;;;;;0.43;0.30;;;;;;;11.79;100.00;99107.50;5295843;28;20283;-84
2024/01/02 06:11:27;;;;;;;0.40;0.30;;;;;;;11.74;100.00;99109.84;5301827;28;20024;-83
2024/01/02 06:13:59;;;;;;;1.20;0.35;;;;;;;11.82;100.00;99126.31;5300869;28;20019;-82
2024/01/02 06:16:31;;;;;;;0.77;0.28;;;;;;;11.67;100.00;99083.53;5303350;28;20032;-83
2024/01/02 06:19:04;;;;;;;0.28;0.20;;;;;;;11.71;100.00;99094.47;5299607;28;20341;-84
2024/01/02 06:21:36;;;;;;;;;;;;;;;12.39;100.00;99138.00;5303534;28;20024;-84
2024/01/02 06:24:08;;;;;;;0.70;0.30;;;;;;;11.82;100.00;99102.72;5300024;28;19927;-83
2024/01/02 06:26:40;;;;;;;0.90;0.50;;;;;;;11.95;100.00;99132.78;5302311;28;20104;-84
2024/01/02 06:29:12;;;;;;;3.10;1.07;;;;;;;11.93;100.00;99140.81;5297720;28;20035;-84
2024/01/02 06:31:44;;;;;;;1.83;0.60;;;;;;;12.03;100.00;99156.31;5300684;28;20017;-82
2024/01/02 06:34:17;;;;;;;2.28;1.10;;;;;;;12.07;100.00;99152.31;5305253;28;20141;-84
2024/01/02 06:36:49;;;;;;;1.92;1.30;;;;;;;12.10;100.00;99151.97;5304903;28;20081;-84
2024/01/02 06:39:20;;;;;;;1.98;1.30;;;;;;;12.04;100.00;99131.69;5292332;28;20029;-84
2024/01/02 06:41:52;;;;;;;2.97;1.88;;;;;;;12.03;100.00;99125.63;5303053;28;20100;-83
2024/01/02 06:44:24;;;;;;;3.47;1.90;;;;;;;12.17;100.00;99137.94;5298488;28;20116;-84
2024/01/02 06:46:56;;;;;;;4.57;3.22;;;;;;;12.07;100.00;99131.31;5302107;28;20293;-83
2024/01/02 06:49:28;;;;;;;4.47;2.47;;;;;;;12.11;100.00;99132.59;5301916;28;20028;-84
2024/01/02 06:52:00;;;;;;;3.22;2.63;;;;;;;12.12;100.00;99137.69;5282885;28;20032;-84
2024/01/02 06:54:32;;;;;;;4.45;2.80;;;;;;;12.24;100.00;99148.53;5305469;28;20028;-84
2024/01/02 06:57:04;;;;;;;3.30;2.80;;;;;;;12.09;100.00;99129.34;5305803;28;20411;-84
2024/01/02 06:59:37;;;;;;;5.25;3.30;;;;;;;12.20;100.00;99136.75;5307556;28;20063;-84
2024/01/02 07:02:09;;;;;;;4.57;3.50;;;;;;;12.15;100.00;99142.53;5304029;28;20024;-84
2024/01/02 07:04:41;;;;;;;6.88;4.25;;;;;;;12.41;100.00;99172.78;5303643;28;20287;-83
2024/01/02 07:07:13;;;;;;;3.80;3.25;;;;;;;12.38;100.00;99181.81;5304658;28;21024;-84
2024/01/02 07:09:45;;;;;;;5.53;3.85;;;;;;;12.32;100.00;99179.94;5304886;28;20302;-84
2024/01/02 07:12:17;;;;;;;4.10;3.60;;;;;;;12.32;100.00;99161.56;5304301;28;20062;-84
2024/01/02 07:14:49;;;;;;;6.72;3.85;;;;;;;12.48;100.00;99189.44;5309066;28;20032;-86
2024/01/02 07:17:22;;;;;;;4.10;3.60;;;;;;;12.37;100.00;99167.06;5307745;28;20068;-85
2024/01/02 07:19:54;;;;;;;6.60;4.22;;;;;;;12.46;100.00;99172.22;5308978;28;20023;-84
2024/01/02 07:22:29;;;;;;;6.93;4.78;;;;;;;12.45;100.00;99171.41;5310897;28;20052;-83
2024/01/02 07:25:01;;;;;;;5.90;4.35;;;;;;;12.36;100.00;99156.75;5311384;28;20028;-83
2024/01/02 07:27:32;;;;;;;5.55;4.20;;;;;;;12.45;100.00;99181.91;5310280;28;20032;-84
2024/01/02 07:30:05;;;;;;;6.43;4.07;;;;;;;12.44;100.00;99185.53;5307740;28;20079;-84
2024/01/02 07:32:37;;;;;;;5.77;3.73;;;;;;;12.46;100.00;99198.47;5307270;28;20032;-84
2024/01/02 07:35:08;;;;;;;5.03;3.88;;;;;;;12.39;100.00;99183.47;5310171;28;20051;-83
2024/01/02 07:37:40;;;;;;;7.88;4.10;;;;;;;12.48;100.00;99192.06;5307238;28;20873;-84
2024/01/02 07:40:12;;;;;;;5.88;3.67;;;;;;;12.47;100.00;99197.50;5309219;28;20038;-83
2024/01/02 07:42:44;;;;;;;7.10;3.90;;;;;;;12.49;100.00;99211.25;5309048;28;20032;-84
2024/01/02 07:45:16;;;;;;;5.80;3.90;;;;;;;12.45;100.00;99197.66;5308938;28;20092;-84
2024/01/02 07:47:48;;;;;;;4.80;3.42;;;;;;;12.63;100.00;99227.00;5307756;28;20059;-84
2024/01/02 07:50:20;;;;;;;5.15;3.58;;;;;;;12.56;100.00;99207.72;5308725;28;20095;-84
2024/01/02 07:52:52;;;;;;;8.07;3.65;;;;;;;12.59;100.00;99227.56;5309725;28;20058;-84
2024/01/02 07:55:24;;;;;;;6.55;3.50;;;;;;;12.54;100.00;99212.34;5308047;28;20064;-84
2024/01/02 07:57:57;;;;;;;6.80;3.30;;;;;;;12.51;100.00;99210.09;5310086;28;20107;-84
2024/01/02 08:00:29;;;;;;;5.13;3.20;;;;;;;12.59;100.00;99230.19;5310078;28;20028;-84
2024/01/02 08:03:01;;;;;;;5.65;3.35;;;;;;;12.61;100.00;99236.91;5308193;28;20043;-84
2024/01/02 08:05:34;;;;;;;6.80;2.88;;;;;;;12.61;100.00;99234.28;5307920;28;20034;-84
2024/01/02 08:08:06;;;;;;;6.38;3.67;;;;;;;12.58;100.00;99232.00;5310599;28;20054;-84
2024/01/02 08:10:38;;;;;;;7.68;2.67;;;;;;;12.63;100.00;99249.84;5268604;28;20036;-82
2024/01/02 08:13:10;;;;;;;7.18;3.22;;;;;;;12.55;100.00;99234.19;5270383;28;20042;-82
2024/01/02 08:15:42;;;;;;;6.95;3.05;;;;;;;12.58;100.00;99231.19;5280991;28;20482;-82
2024/01/02 08:18:14;;;;;;;7.35;2.92;;;;;;;12.63;100.00;99236.69;5281254;28;20375;-82
2024/01/02 08:20:46;;;;;;;5.75;2.70;;;;;;;12.68;100.00;99247.47;5282827;28;20857;-82
2024/01/02 08:23:17;;;;;;;8.15;3.88;;;;;;;12.71;100.00;99249.75;5283895;28;20028;-82
2024/01/02 08:25:49;;;;;;;5.93;2.78;;;;;;;12.66;100.00;99250.28;5282314;28;20033;-82
2024/01/02 08:28:22;;;;;;;5.15;2.83;;;;;;;12.72;100.00;99254.00;5282496;28;20035;-83
2024/01/02 08:30:54;;;;;;;6.20;3.35;;;;;;;12.69;100.00;99250.91;5286099;28;20032;-82
2024/01/02 08:33:26;;;;;;;9.25;3.42;;;;;;;12.74;100.00;99254.63;5286067;28;20486;-82
2024/01/02 08:35:58;;;;;;;5.55;3.35;;;;;;;12.72;100.00;99250.53;5284999;28;20409;-82
2024/01/02 08:38:30;;;;;;;5.30;3.10;;;;;;;12.70;100.00;99242.06;5286610;28;20048;-82
2024/01/02 08:41:02;;;;;;;5.47;3.20;;;;;;;12.75;100.00;99250.19;5286619;28;20033;-82
2024/01/02 08:43:33;;;;;;;5.10;2.80;;;;;;;12.69;100.00;99241.25;5285419;28;20037;-82
2024/01/02 08:46:06;;;;;;;6.57;3.40;;;;;;;12.77;100.00;99249.00;5288279;28;20037;-82
2024/01/02 08:48:38;;;;;;;5.85;3.17;;;;;;;12.73;100.00;99239.03;5290019;28;20032;-82
2024/01/02 08:51:10;;;;;;;6.00;2.50;;;;;;;12.66;100.00;99236.34;5284883;28;20386;-82
2024/01/02 08:53:42;;;;;;;4.45;2.92;;;;;;;12.75;100.00;99240.50;5287983;28;20031;-82
2024/01/02 08:56:14;;;;;;;5.13;2.75;;;;;;;12.73;100.00;99237.25;5287553;28;20425;-82
2024/01/02 08:58:48;;;;;;;5.15;2.80;;;;;;;12.73;100.00;99221.47;5289763;28;20036;-82
2024/01/02 09:01:19;;;;;;;4.70;2.60;;;;;;;12.75;100.00;99229.16;5286747;28;20032;-82
2024/01/02 09:03:53;;;;;;;4.50;2.60;;;;;;;12.78;100.00;99229.63;5265948;28;20077;-82
2024/01/02 09:06:24;;;;;;;3.00;2.50;;;;;;;12.84;100.00;99220.16;5284981;28;20028;-82
2024/01/02 09:08:57;;;;;;;4.53;2.40;;;;;;;12.94;100.00;99227.78;5286793;28;20046;-82
2024/01/02 09:11:29;;;;;;;3.15;2.28;;;;;;;12.81;100.00;99216.13;5290073;28;20032;-82
2024/01/02 09:14:01;;;;;;;2.85;2.10;;;;;;;12.85;100.00;99206.84;5271526;28;20036;-82
2024/01/02 09:16:33;;;;;;;2.58;1.83;;;;;;;12.91;100.00;99213.97;5285569;28;20035;-82
2024/01/02 09:19:05;;;;;;;2.55;1.90;;;;;;;12.86;100.00;99210.28;5286344;28;20036;-82
2024/01/02 09:21:37;;;;;;;3.03;1.98;;;;;;;12.83;100.00;99214.09;5285640;28;20400;-82
2024/01/02 09:24:08;;;;;;;2.58;2.00;;;;;;;12.83;100.00;99200.97;5285907;28;20040;-82
2024/01/02 09:26:44;;;;;;;3.25;1.80;;;;;;;12.91;100.00;99192.16;5285026;28;20636;-82
2024/01/02 09:29:17;;;;;;;4.00;2.33;;;;;;;12.92;100.00;99188.53;5283710;28;20037;-82
2024/01/02 09:31:49;;;;;;;3.08;2.05;;;;;;;12.99;100.00;99191.22;5265759;28;20044;-82
2024/01/02 09:34:21;;;;;;;2.30;1.83;;;;;;;12.88;100.00;99182.03;5272218;28;20047;-83
2024/01/02 09:36:53;;;;;;;2.80;1.70;;;;;;;12.94;100.00;99188.34;5279591;28;20032;-82
2024/01/02 09:39:25;;;;;;;2.10;1.40;;;;;;;12.88;100.00;99187.28;5280867;28;20557;-82
2024/01/02 09:42:31;;;;;;;3.33;1.83;;;;;;;13.12;100.00;99186.13;5279138;28;20042;-83
2024/01/02 09:45:24;;;;;;;1.65;1.33;;;;;;;13.08;100.00;99192.75;5280409;28;20389;-83
2024/01/02 09:48:44;;;;;;;2.17;1.08;;;;;;;13.14;100.00;99191.97;5278370;28;20040;-83
2024/01/02 09:51:38;;;;;;;1.40;1.00;;;;;;;13.07;100.00;99180.63;5251587;28;20048;-83
2024/01/02 09:54:24;;;;;;;1.50;1.08;;;;;;;13.08;100.00;99193.56;5279816;28;20421;-83
2024/01/02 09:57:10;;;;;;;1.75;0.98;;;;;;;13.03;100.00;99180.16;5278727;28;20574;-83
2024/01/02 10:00:01;;;;;;;2.10;1.00;;;;;;;13.18;100.00;99187.16;5277161;28;20032;-83
2024/01/02 10:02:54;;;;;;;1.15;0.80;;;;;;;13.08;100.00;99192.75;5281127;28;20127;-84
2024/01/02 10:05:49;;;;;;;3.30;1.50;;;;;;;13.28;100.00;99193.78;5279009;28;20505;-84
2024/01/02 10:08:20;;;;;;;1.10;0.80;;;;;;;13.06;100.00;99190.28;5276743;28;20284;-84
2024/01/02 10:11:11;;;;;;;2.10;0.82;;;;;;;13.08;100.00;99198.00;5279343;28;20405;-83
2024/01/02 10:14:01;;;;;;;1.02;0.60;;;;;;;13.26;100.00;99184.44;5279574;28;20028;-83
2024/01/02 10:16:39;;;;;;;1.40;0.70;;;;;;;13.08;100.00;99177.78;5281130;28;20032;-84
2024/01/02 10:19:23;;;;;;;0.90;0.60;;;;;;;13.12;100.00;99183.47;5267886;28;20047;-84
2024/01/02 10:22:39;;;;;;;0.90;0.60;;;;;;;13.38;100.00;99175.88;5280950;28;20031;-83
2024/01/02 10:25:16;;;;;;;1.35;0.70;;;;;;;13.12;100.00;99168.50;5263818;28;20059;-83
2024/01/02 10:28:12;;;;;;;1.23;0.77;;;;;;;13.25;100.00;99167.03;5261630;28;20077;-84
2024/01/02 10:30:53;;;;;;;1.38;0.85;;;;;;;13.18;100.00;99147.72;5277525;28;20517;-84
2024/01/02 10:33:27;;;;;;;1.20;0.77;;;;;;;13.08;100.00;99164.63;5276791;28;20047;-83
2024/01/02 10:36:04;;;;;;;1.58;0.73;;;;;;;13.14;100.00;99155.16;5280800;28;20040;-83
2024/01/02 10:38:43;;;;;;;1.17;0.70;;;;;;;13.14;100.00;99158.63;5279966;28;20044;-83
2024/01/02 10:41:52;;;;;;;1.25;0.80;;;;;;;13.26;100.00;99158.97;5281664;28;20418;-83
2024/01/02 10:44:41;;;;;;;1.60;0.70;;;;;;;13.27;100.00;99138.75;5278812;28;20453;-84
2024/01/02 10:47:26;;;;;;;1.95;0.60;;;;;;;13.12;100.00;99133.53;5288841;28;20594;-83
2024/01/02 10:50:01;;;;;;;2.75;0.73;;;;;;;13.07;100.00;99130.66;5291967;28;20484;-83
2024/01/02 10:53:21;;;;;;;0.93;0.47;;;;;;;13.36;100.00;99142.84;5292103;28;20032;-83
2024/01/02 10:56:19;;;;;;;1.80;0.40;;;;;;;13.18;100.00;99124.06;5282246;28;20217;-84
2024/01/02 10:59:35;;;;;;;0.68;0.40;;;;;;;13.25;100.00;99123.13;5274289;28;20410;-84
2024/01/02 11:02:23;;;;;;;1.40;0.50;;;;;;;13.16;100.00;99129.50;5283399;28;20036;-84
2024/01/02 11:05:03;;;;;;;0.82;0.32;;;;;;;13.08;100.00;99116.50;5283040;28;20044;-84
2024/01/02 11:07:38;;;;;;;0.68;0.40;;;;;;;12.96;100.00;99120.63;5286723;28;20032;-84
2024/01/02 11:10:23;;;;;;;1.23;0.30;;;;;;;13.00;100.00;99117.44;5284844;28;20028;-84
2024/01/02 11:13:01;;;;;;;0.98;0.40;;;;;;;12.99;100.00;99104.47;5286059;28;20028;-84
2024/01/02 11:15:41;;;;;;;0.85;0.30;;;;;;;13.01;100.00;99100.66;5286176;28;20478;-83
2024/01/02 11:18:15;;;;;;;0.40;0.20;;;;;;;12.87;100.00;99109.41;5283661;28;20139;-84
2024/01/02 11:21:24;;;;;;;0.75;0.45;;;;;;;13.09;100.00;99094.47;5288358;28;20036;-83
2024/01/02 11:24:02;;;;;;;1.27;0.30;;;;;;;12.97;100.00;99090.72;5291263;28;20040;-83
2024/01/02 11:26:40;;;;;;;0.57;0.30;;;;;;;12.88;100.00;99087.41;5292928;28;20039;-83
2024/01/02 11:29:23;;;;;;;0.60;0.30;;;;;;;12.99;100.00;99080.81;5292688;28;20036;-83
2024/01/02 11:31:57;;;;;;;0.55;0.30;;;;;;;12.75;100.00;99080.19;5289203;28;20033;-83
2024/01/02 11:34:59;;;;;;;0.98;0.28;;;;;;;12.74;100.00;99070.69;5290163;28;20043;-83
2024/01/02 11:37:40;;;;;;;2.33;0.40;;;;;;;12.87;100.00;99056.84;5261486;28;20060;-83
2024/01/02 11:40:12;;;;;;;0.47;0.30;;;;;;;12.75;100.00;99059.16;5283108;28;20380;-83
2024/01/02 11:43:08;;;;;;;0.57;0.30;;;;;;;12.84;100.00;99050.19;5285176;28;20870;-84
2024/01/02 11:45:44;;;;;;;2.97;0.43;;;;;;;12.71;100.00;99052.66;5285662;28;20047;-83
2024/01/02 11:48:52;;;;;;;1.77;0.50;;;;;;;12.86;100.00;99037.66;5285978;28;20035;-84
2024/01/02 11:51:27;;;;;;;1.20;0.45;;;;;;;12.66;100.00;99045.34;5286505;28;20862;-83
2024/01/02 11:54:40;;;;;;;0.95;0.40;;;;;;;12.74;100.00;99041.78;5287179;28;20036;-83
2024/01/02 11:57:24;;;;;;;1.25;0.30;;;;;;;12.66;100.00;99026.97;5286442;28;20047;-83
2024/01/02 12:00:03;;;;;;;1.48;0.30;;;;;;;12.60;100.00;99032.97;5284440;28;20032;-83
2024/01/02 12:03:01;;;;;;;0.73;0.43;;;;;;;12.70;100.00;99019.53;5283222;28;20155;-83
2024/01/02 12:05:38;;;;;;;0.98;0.25;;;;;;;12.42;100.00;99008.94;5283576;28;20028;-83